Time;durP1;ratioP1;P1;durP2;ratioP2;P2;SDS_P1;SDS_P2;PMS_P1;PMS_P2;Temp;Humidity;BMP_temperature;BMP_pressure;BME280_temperature;BME280_humidity;BME280_pressure;Samples;Min_cycle;Max_cycle;Signal;HPM_P1;HPM_P2
2022/03/05 00:00:12;;;;;;;29.17;15.13;;;;;;;;;;10407383;28;20498;-72
2022/03/05 00:05:13;;;;;;;38.83;15.43;;;;;;;;;;10405884;28;20053;-72
2022/03/05 00:10:14;;;;;;;27.13;12.95;;;;;;;;;;10406801;28;20029;-73
2022/03/05 00:15:14;;;;;;;37.10;15.77;;;;;;;;;;10406655;28;20041;-71
2022/03/05 00:20:15;;;;;;;34.38;15.23;;;;;;;;;;10405208;28;20496;-73
2022/03/05 00:25:15;;;;;;;31.92;15.35;;;;;;;;;;10405160;28;20120;-73
2022/03/05 00:30:16;;;;;;;32.63;15.07;;;;;;;;;;10405160;28;20026;-71
2022/03/05 00:35:17;;;;;;;28.50;15.43;;;;;;;;;;10404772;28;20036;-71
2022/03/05 00:40:17;;;;;;;26.48;16.02;;;;;;;;;;10388694;28;20017;-72
2022/03/05 00:45:17;;;;;;;29.10;15.60;;;;;;;;;;10404449;28;20466;-72
2022/03/05 00:50:19;;;;;;;33.83;17.58;;;;;;;;;;10421000;28;20053;-71
2022/03/05 00:55:19;;;;;;;41.15;17.55;;;;;;;;;;10404468;28;20103;-73
2022/03/05 01:00:20;;;;;;;38.38;18.77;;;;;;;;;;10404119;28;20029;-77
2022/03/05 01:05:20;;;;;;;35.07;19.10;;;;;;;;;;10403719;28;20486;-72
2022/03/05 01:10:20;;;;;;;38.03;17.47;;;;;;;;;;10404138;28;20071;-74
2022/03/05 01:15:20;;;;;;;35.70;18.17;;;;;;;;;;10403899;28;20351;-72
2022/03/05 01:20:21;;;;;;;38.27;17.97;;;;;;;;;;10403495;28;20030;-70
2022/03/05 01:25:21;;;;;;;34.95;16.67;;;;;;;;;;10403856;28;20036;-72
2022/03/05 01:30:21;;;;;;;38.10;18.17;;;;;;;;;;10403884;28;20095;-73
2022/03/05 01:35:22;;;;;;;37.83;16.80;;;;;;;;;;10419834;28;20464;-71
2022/03/05 01:40:23;;;;;;;37.43;19.20;;;;;;;;;;10420687;28;20025;-71
2022/03/05 01:45:23;;;;;;;39.90;21.15;;;;;;;;;;10404525;28;20327;-71
2022/03/05 01:50:23;;;;;;;37.15;19.80;;;;;;;;;;10409133;28;20434;-71
2022/03/05 01:55:24;;;;;;;38.50;18.92;;;;;;;;;;10411020;28;20561;-71
2022/03/05 02:00:24;;;;;;;39.42;18.05;;;;;;;;;;10410700;28;20029;-70
2022/03/05 02:05:24;;;;;;;47.38;18.35;;;;;;;;;;10411758;28;20036;-77
2022/03/05 02:10:25;;;;;;;41.93;19.33;;;;;;;;;;10409982;28;20079;-72
2022/03/05 02:15:25;;;;;;;32.00;17.27;;;;;;;;;;10426650;28;20035;-72
2022/03/05 02:20:29;;;;;;;48.27;19.27;;;;;;;;;;10409865;28;20154;-74
2022/03/05 02:25:29;;;;;;;34.85;17.23;;;;;;;;;;10409702;28;20314;-73
2022/03/05 02:30:30;;;;;;;38.05;18.55;;;;;;;;;;10409389;28;20055;-72
2022/03/05 02:35:30;;;;;;;37.13;17.57;;;;;;;;;;10409151;28;20030;-72
2022/03/05 02:40:30;;;;;;;32.45;17.75;;;;;;;;;;10408978;28;20082;-71
2022/03/05 02:45:31;;;;;;;46.72;18.17;;;;;;;;;;10408833;28;20454;-71
2022/03/05 02:50:31;;;;;;;36.95;19.38;;;;;;;;;;10408906;28;20036;-74
2022/03/05 02:55:32;;;;;;;41.53;20.37;;;;;;;;;;10407889;28;20450;-72
2022/03/05 03:00:32;;;;;;;44.97;23.80;;;;;;;;;;10409492;28;20640;-72
2022/03/05 03:05:32;;;;;;;46.38;26.05;;;;;;;;;;10408136;28;20033;-72
2022/03/05 03:10:33;;;;;;;52.72;23.70;;;;;;;;;;10407732;28;20026;-72
2022/03/05 03:15:33;;;;;;;46.43;20.87;;;;;;;;;;10407838;28;20025;-71
2022/03/05 03:20:33;;;;;;;45.55;21.13;;;;;;;;;;10408823;28;20414;-72
2022/03/05 03:25:34;;;;;;;52.45;21.05;;;;;;;;;;10407390;28;20434;-70
2022/03/05 03:30:34;;;;;;;42.00;21.52;;;;;;;;;;10406941;28;20014;-71
2022/03/05 03:35:35;;;;;;;46.42;24.42;;;;;;;;;;10409252;28;20828;-73
2022/03/05 03:40:35;;;;;;;52.85;26.60;;;;;;;;;;10406912;28;20470;-74
2022/03/05 03:45:36;;;;;;;49.88;23.10;;;;;;;;;;10406251;28;20080;-71
2022/03/05 03:50:36;;;;;;;41.22;21.27;;;;;;;;;;10406308;28;20380;-72
2022/03/05 03:55:36;;;;;;;50.27;21.53;;;;;;;;;;10407324;28;20037;-72
2022/03/05 04:00:37;;;;;;;38.43;18.17;;;;;;;;;;10406037;28;20044;-72
2022/03/05 04:05:37;;;;;;;30.20;15.93;;;;;;;;;;10407029;28;20285;-71
2022/03/05 04:10:38;;;;;;;31.13;17.07;;;;;;;;;;10421677;28;20262;-75
2022/03/05 04:15:39;;;;;;;32.65;17.33;;;;;;;;;;10405552;28;20280;-72
2022/03/05 04:20:39;;;;;;;42.45;19.15;;;;;;;;;;10406426;28;20025;-72
2022/03/05 04:25:40;;;;;;;42.30;19.05;;;;;;;;;;10405007;28;20029;-71
2022/03/05 04:30:40;;;;;;;37.08;19.23;;;;;;;;;;10404743;28;20026;-71
2022/03/05 04:35:40;;;;;;;38.97;20.90;;;;;;;;;;10405526;28;20026;-71
2022/03/05 04:40:41;;;;;;;39.58;20.00;;;;;;;;;;10404721;28;20026;-72
2022/03/05 04:45:41;;;;;;;43.42;20.70;;;;;;;;;;10404462;28;20119;-72
2022/03/05 04:50:41;;;;;;;42.95;21.80;;;;;;;;;;10405654;28;20029;-71
2022/03/05 04:55:42;;;;;;;46.85;23.33;;;;;;;;;;10404361;28;20121;-71
2022/03/05 05:00:43;;;;;;;40.88;22.42;;;;;;;;;;10404484;28;20033;-71
2022/03/05 05:05:43;;;;;;;44.47;23.05;;;;;;;;;;10404091;28;20032;-71
2022/03/05 05:10:43;;;;;;;44.13;22.83;;;;;;;;;;10404165;28;20026;-71
2022/03/05 05:15:45;;;;;;;47.28;24.30;;;;;;;;;;10403985;28;20208;-71
2022/03/05 05:20:45;;;;;;;67.78;26.45;;;;;;;;;;10403744;28;20017;-71
2022/03/05 05:25:46;;;;;;;54.20;25.23;;;;;;;;;;10413208;28;20037;-71
2022/03/05 05:30:46;;;;;;;50.72;26.77;;;;;;;;;;10417326;28;20017;-71
2022/03/05 05:35:47;;;;;;;63.97;30.00;;;;;;;;;;10452724;28;20411;-71
2022/03/05 05:40:47;;;;;;;63.50;28.73;;;;;;;;;;10424399;28;20017;-72
2022/03/05 05:45:47;;;;;;;59.28;28.70;;;;;;;;;;10429336;28;20114;-72
2022/03/05 05:50:48;;;;;;;70.03;31.90;;;;;;;;;;10435207;28;20033;-71
2022/03/05 05:55:48;;;;;;;71.93;24.95;;;;;;;;;;10410267;28;20036;-71
2022/03/05 06:00:48;;;;;;;62.60;26.80;;;;;;;;;;10442342;28;20104;-71
2022/03/05 06:05:49;;;;;;;56.75;27.75;;;;;;;;;;10451626;28;20279;-71
2022/03/05 06:10:49;;;;;;;61.58;23.88;;;;;;;;;;10431164;28;20048;-73
2022/03/05 06:15:50;;;;;;;52.30;22.67;;;;;;;;;;10411452;28;20025;-72
2022/03/05 06:20:50;;;;;;;48.03;24.05;;;;;;;;;;10409713;28;20553;-72
2022/03/05 06:25:51;;;;;;;61.22;24.75;;;;;;;;;;10409401;28;20125;-71
2022/03/05 06:30:51;;;;;;;66.38;26.65;;;;;;;;;;10409229;28;20063;-71
2022/03/05 06:35:52;;;;;;;50.37;21.50;;;;;;;;;;10408797;28;20055;-71
2022/03/05 06:40:52;;;;;;;49.80;21.27;;;;;;;;;;10408691;28;20125;-70
2022/03/05 06:45:53;;;;;;;36.53;19.95;;;;;;;;;;10412243;28;20041;-71
2022/03/05 06:50:53;;;;;;;46.33;21.30;;;;;;;;;;10449781;28;20024;-72
2022/03/05 06:55:53;;;;;;;47.17;21.43;;;;;;;;;;10427122;28;20474;-74
2022/03/05 07:00:53;;;;;;;39.65;19.20;;;;;;;;;;10412933;28;20380;-73
2022/03/05 07:05:54;;;;;;;42.42;18.55;;;;;;;;;;10448703;28;20033;-73
2022/03/05 07:10:54;;;;;;;36.35;20.33;;;;;;;;;;10448511;28;20120;-73
2022/03/05 07:15:54;;;;;;;39.00;18.92;;;;;;;;;;10428971;28;20028;-73
2022/03/05 07:20:57;;;;;;;44.03;19.52;;;;;;;;;;10408869;28;20580;-73
2022/03/05 07:25:57;;;;;;;45.55;20.45;;;;;;;;;;10436917;28;20021;-74
2022/03/05 07:30:57;;;;;;;44.20;20.67;;;;;;;;;;10449153;28;20470;-74
2022/03/05 07:35:58;;;;;;;45.70;21.25;;;;;;;;;;10445681;28;20025;-75
2022/03/05 07:40:59;;;;;;;42.47;19.48;;;;;;;;;;10406202;28;20029;-74
2022/03/05 07:45:59;;;;;;;49.08;24.08;;;;;;;;;;10422196;28;20473;-73
2022/03/05 07:51:00;;;;;;;57.50;28.58;;;;;;;;;;10447635;28;20124;-75
2022/03/05 07:56:00;;;;;;;54.42;25.13;;;;;;;;;;10446904;28;20033;-74
2022/03/05 08:01:00;;;;;;;60.23;27.17;;;;;;;;;;10436124;28;20025;-70
2022/03/05 08:06:01;;;;;;;60.43;28.77;;;;;;;;;;10521262;22;20520;-76
2022/03/05 08:11:03;;;;;;;76.87;31.57;;;;;;;;;;10403278;28;20083;-76
2022/03/05 08:16:03;;;;;;;71.30;33.40;;;;;;;;;;10401250;28;20041;-75
2022/03/05 08:21:04;;;;;;;65.45;29.98;;;;;;;;;;10393872;28;20025;-70
2022/03/05 08:26:05;;;;;;;62.70;29.40;;;;;;;;;;10378808;28;20469;-73
2022/03/05 08:31:05;;;;;;;65.25;30.40;;;;;;;;;;10400430;28;20022;-77
2022/03/05 08:36:06;;;;;;;69.50;27.70;;;;;;;;;;10378753;28;20029;-76
2022/03/05 08:41:07;;;;;;;46.28;22.70;;;;;;;;;;10371175;28;20033;-75
2022/03/05 08:46:07;;;;;;;59.30;22.52;;;;;;;;;;10401839;28;20038;-73
2022/03/05 08:51:08;;;;;;;47.50;23.97;;;;;;;;;;10402359;28;20029;-76
2022/03/05 08:56:08;;;;;;;48.70;24.60;;;;;;;;;;10403727;28;20260;-76
2022/03/05 09:01:08;;;;;;;49.40;24.42;;;;;;;;;;10378607;28;20048;-71
2022/03/05 09:06:09;;;;;;;45.90;25.80;;;;;;;;;;10361577;28;20108;-75
2022/03/05 09:11:09;;;;;;;48.22;20.35;;;;;;;;;;10381781;28;20029;-74
2022/03/05 09:16:10;;;;;;;37.17;19.23;;;;;;;;;;10400271;28;20175;-75
2022/03/05 09:21:10;;;;;;;41.50;17.53;;;;;;;;;;10399876;28;20183;-75
2022/03/05 09:26:13;;;;;;;35.58;18.50;;;;;;;;;;10397955;28;20025;-72
2022/03/05 09:31:13;;;;;;;31.17;17.20;;;;;;;;;;10400058;28;20026;-75
2022/03/05 09:36:13;;;;;;;30.77;16.33;;;;;;;;;;10398511;28;20025;-72
2022/03/05 09:41:14;;;;;;;32.35;16.15;;;;;;;;;;10399664;28;20037;-77
2022/03/05 09:46:17;;;;;;;27.77;14.87;;;;;;;;;;10398652;28;20129;-73
2022/03/05 09:51:20;;;;;;;29.65;15.68;;;;;;;;;;10398371;28;20479;-75
2022/03/05 09:56:20;;;;;;;33.20;16.35;;;;;;;;;;10399089;28;20065;-77
2022/03/05 10:01:21;;;;;;;28.83;16.23;;;;;;;;;;10398310;28;20541;-74
2022/03/05 10:06:22;;;;;;;37.00;19.75;;;;;;;;;;10397791;28;20120;-76
2022/03/05 10:11:23;;;;;;;37.63;18.75;;;;;;;;;;10404746;28;20079;-73
2022/03/05 10:16:25;;;;;;;34.17;17.65;;;;;;;;;;10404223;28;20415;-76
2022/03/05 10:21:28;;;;;;;33.47;18.00;;;;;;;;;;10403878;28;20072;-71
2022/03/05 10:26:48;;;;;;;38.67;21.42;;;;;;;;;;10404928;28;20030;-71
2022/03/05 10:31:58;;;;;;;33.00;17.83;;;;;;;;;;10403216;28;20025;-73
2022/03/05 10:37:00;;;;;;;40.25;19.25;;;;;;;;;;10403331;28;20048;-72
2022/03/05 10:42:01;;;;;;;31.15;15.50;;;;;;;;;;10402854;28;20083;-76
2022/03/05 10:47:02;;;;;;;33.93;16.60;;;;;;;;;;10402213;28;20025;-72
2022/03/05 10:52:05;;;;;;;37.10;19.67;;;;;;;;;;10401653;28;20087;-73
2022/03/05 10:57:18;;;;;;;40.83;18.42;;;;;;;;;;10386160;28;20476;-71
2022/03/05 11:02:19;;;;;;;33.42;18.08;;;;;;;;;;10402423;28;20558;-74
2022/03/05 11:07:22;;;;;;;38.50;20.02;;;;;;;;;;10402174;28;20056;-72
2022/03/05 11:12:22;;;;;;;41.80;19.73;;;;;;;;;;10402126;28;20474;-75
2022/03/05 11:17:22;;;;;;;41.28;18.95;;;;;;;;;;10402722;28;20041;-71
2022/03/05 11:22:22;;;;;;;37.78;20.27;;;;;;;;;;10401734;28;20025;-72
2022/03/05 11:27:23;;;;;;;40.42;18.33;;;;;;;;;;10400964;28;20028;-75
2022/03/05 11:32:37;;;;;;;37.40;21.75;;;;;;;;;;10401474;28;20029;-75
2022/03/05 11:37:37;;;;;;;53.88;21.50;;;;;;;;;;10400118;28;20520;-76
2022/03/05 11:42:38;;;;;;;40.97;22.33;;;;;;;;;;10401318;28;20036;-75
2022/03/05 11:47:39;;;;;;;42.10;19.73;;;;;;;;;;10402841;28;20415;-75
2022/03/05 11:52:39;;;;;;;39.27;22.93;;;;;;;;;;10401392;28;20033;-79
2022/03/05 11:57:43;;;;;;;41.05;22.27;;;;;;;;;;10400225;28;20530;-76
2022/03/05 12:02:45;;;;;;;36.17;20.23;;;;;;;;;;10401157;28;20021;-77
2022/03/05 12:07:45;;;;;;;47.50;22.08;;;;;;;;;;10400750;28;20264;-77
2022/03/05 12:12:52;;;;;;;38.03;18.73;;;;;;;;;;10400808;28;20017;-77
2022/03/05 12:17:53;;;;;;;40.10;21.25;;;;;;;;;;10400596;28;20432;-71
2022/03/05 12:22:57;;;;;;;50.15;23.95;;;;;;;;;;10398991;28;20029;-73
2022/03/05 12:27:58;;;;;;;51.13;22.38;;;;;;;;;;10398919;28;20036;-74
2022/03/05 12:32:59;;;;;;;43.17;21.00;;;;;;;;;;10397532;28;20026;-75
2022/03/05 12:38:00;;;;;;;44.33;21.40;;;;;;;;;;10399541;28;20025;-76
2022/03/05 12:43:01;;;;;;;47.05;21.85;;;;;;;;;;10399398;28;20021;-73
2022/03/05 12:48:12;;;;;;;45.13;22.10;;;;;;;;;;10399292;28;20345;-78
2022/03/05 12:53:15;;;;;;;42.92;21.48;;;;;;;;;;10399634;28;20017;-75
2022/03/05 12:58:15;;;;;;;44.78;20.40;;;;;;;;;;10399726;28;20018;-76
2022/03/05 13:03:16;;;;;;;38.93;19.50;;;;;;;;;;10399157;28;20037;-76
2022/03/05 13:08:22;;;;;;;35.88;19.48;;;;;;;;;;10400402;28;20104;-74
2022/03/05 13:13:27;;;;;;;27.92;15.30;;;;;;;;;;10399372;28;20529;-75
2022/03/05 13:18:27;;;;;;;39.03;17.80;;;;;;;;;;10400389;28;20136;-77
2022/03/05 13:23:28;;;;;;;43.20;21.00;;;;;;;;;;10399803;28;20399;-75
2022/03/05 13:28:29;;;;;;;34.38;18.60;;;;;;;;;;10400034;28;20030;-77
2022/03/05 13:33:52;;;;;;;39.38;19.95;;;;;;;;;;10399475;28;20056;-75
2022/03/05 13:38:54;;;;;;;40.47;20.40;;;;;;;;;;10394623;28;20037;-74
2022/03/05 13:43:56;;;;;;;35.22;17.50;;;;;;;;;;10363727;28;20066;-72
2022/03/05 13:48:57;;;;;;;35.80;20.35;;;;;;;;;;10282114;28;20031;-71
2022/03/05 13:54:02;;;;;;;47.30;23.77;;;;;;;;;;10281900;28;20113;-70
2022/03/05 13:59:02;;;;;;;44.50;24.40;;;;;;;;;;10284177;28;20031;-73
2022/03/05 14:04:15;;;;;;;59.75;27.98;;;;;;;;;;10281979;28;20102;-70
2022/03/05 14:09:28;;;;;;;62.38;27.75;;;;;;;;;;10282217;28;20015;-70
2022/03/05 14:14:36;;;;;;;52.38;28.77;;;;;;;;;;10282920;28;20027;-73
2022/03/05 14:19:36;;;;;;;58.80;29.97;;;;;;;;;;10283591;28;20022;-71
2022/03/05 14:24:40;;;;;;;46.40;23.70;;;;;;;;;;10280135;28;20532;-71
2022/03/05 14:29:42;;;;;;;52.72;27.45;;;;;;;;;;10279898;28;20177;-76
2022/03/05 14:34:42;;;;;;;55.17;29.35;;;;;;;;;;10279381;28;20034;-73
2022/03/05 14:39:42;;;;;;;53.47;28.65;;;;;;;;;;10279247;28;20027;-72
2022/03/05 14:44:42;;;;;;;55.25;27.38;;;;;;;;;;10281445;28;20031;-73
2022/03/05 14:49:43;;;;;;;53.83;27.52;;;;;;;;;;10282253;28;20503;-74
2022/03/05 14:54:43;;;;;;;55.77;29.60;;;;;;;;;;10278932;28;20515;-72
2022/03/05 14:59:43;;;;;;;61.85;31.65;;;;;;;;;;10245069;29;20020;-75
2022/03/05 15:04:44;;;;;;;66.90;31.95;;;;;;;;;;10249133;28;102543;-71
2022/03/05 15:09:44;;;;;;;66.43;31.98;;;;;;;;;;10320626;28;20424;-71
2022/03/05 15:14:44;;;;;;;69.27;31.60;;;;;;;;;;10321861;28;20517;-71
2022/03/05 15:19:45;;;;;;;58.47;30.93;;;;;;;;;;10321244;28;20416;-71
2022/03/05 15:24:45;;;;;;;72.00;36.75;;;;;;;;;;10305874;28;20029;-71
2022/03/05 15:29:46;;;;;;;57.55;27.95;;;;;;;;;;10323446;28;20091;-72
2022/03/05 15:34:46;;;;;;;73.50;36.55;;;;;;;;;;10319082;28;20057;-75
2022/03/05 15:39:46;;;;;;;68.95;34.17;;;;;;;;;;10317460;28;20027;-72
2022/03/05 15:44:47;;;;;;;71.97;36.30;;;;;;;;;;10318644;28;20038;-73
2022/03/05 15:49:47;;;;;;;72.65;35.13;;;;;;;;;;10316024;28;20049;-75
2022/03/05 15:54:47;;;;;;;67.50;33.10;;;;;;;;;;10320676;28;20022;-78
2022/03/05 15:59:48;;;;;;;76.20;37.40;;;;;;;;;;10320004;28;20399;-75
2022/03/05 16:04:48;;;;;;;71.33;36.43;;;;;;;;;;10320208;28;20050;-73
2022/03/05 16:09:48;;;;;;;64.38;33.22;;;;;;;;;;10319905;28;20273;-71
2022/03/05 16:14:48;;;;;;;69.32;33.42;;;;;;;;;;10320595;28;20043;-70
2022/03/05 16:19:49;;;;;;;58.42;32.35;;;;;;;;;;10320423;28;20078;-78
2022/03/05 16:24:49;;;;;;;63.63;35.60;;;;;;;;;;10319529;28;20030;-73
2022/03/05 16:29:50;;;;;;;65.32;34.35;;;;;;;;;;10318946;28;20021;-73
2022/03/05 16:34:50;;;;;;;64.13;32.87;;;;;;;;;;10320429;28;20027;-78
2022/03/05 16:39:50;;;;;;;70.63;32.17;;;;;;;;;;10320688;28;20033;-72
2022/03/05 16:44:50;;;;;;;62.75;30.20;;;;;;;;;;10334154;28;20036;-72
2022/03/05 16:49:51;;;;;;;60.15;28.23;;;;;;;;;;10304856;28;20068;-71
2022/03/05 16:54:52;;;;;;;70.35;33.97;;;;;;;;;;10317712;28;20032;-75
2022/03/05 16:59:52;;;;;;;73.45;33.60;;;;;;;;;;10318324;28;20037;-74
2022/03/05 17:04:53;;;;;;;77.00;34.33;;;;;;;;;;10319523;28;20051;-74
2022/03/05 17:09:53;;;;;;;69.38;35.38;;;;;;;;;;10318862;28;20018;-75
2022/03/05 17:14:53;;;;;;;65.70;36.17;;;;;;;;;;10318202;28;20096;-69
2022/03/05 17:19:54;;;;;;;69.78;36.53;;;;;;;;;;10323507;28;20057;-74
2022/03/05 17:24:54;;;;;;;79.93;38.50;;;;;;;;;;10341478;28;20122;-73
2022/03/05 17:29:55;;;;;;;69.67;34.33;;;;;;;;;;10326468;28;20033;-77
2022/03/05 17:34:55;;;;;;;81.75;37.88;;;;;;;;;;10324929;28;20268;-75
2022/03/05 17:39:55;;;;;;;80.57;40.20;;;;;;;;;;10324588;28;20023;-77
2022/03/05 17:44:55;;;;;;;76.70;38.58;;;;;;;;;;10342113;28;20026;-71
2022/03/05 17:49:56;;;;;;;67.65;34.80;;;;;;;;;;10325186;28;20420;-73
2022/03/05 17:54:56;;;;;;;90.20;42.30;;;;;;;;;;10339027;28;20030;-75
2022/03/05 17:59:56;;;;;;;83.57;43.70;;;;;;;;;;10321556;28;20018;-70
2022/03/05 18:04:57;;;;;;;95.83;42.90;;;;;;;;;;10338789;28;20116;-77
2022/03/05 18:09:57;;;;;;;79.83;42.43;;;;;;;;;;10325934;28;20022;-72
2022/03/05 18:14:58;;;;;;;90.90;44.70;;;;;;;;;;10338555;28;20030;-74
2022/03/05 18:19:59;;;;;;;81.85;41.03;;;;;;;;;;10325993;28;20583;-74
2022/03/05 18:24:59;;;;;;;87.13;42.60;;;;;;;;;;10323964;28;20124;-73
2022/03/05 18:29:59;;;;;;;81.93;40.50;;;;;;;;;;10323195;28;20048;-72
2022/03/05 18:35:00;;;;;;;80.60;40.15;;;;;;;;;;10324530;28;20689;-74
2022/03/05 18:40:00;;;;;;;78.68;37.63;;;;;;;;;;10323810;28;20026;-77
2022/03/05 18:45:01;;;;;;;67.87;34.80;;;;;;;;;;10336615;28;20037;-69
2022/03/05 18:50:03;;;;;;;72.32;37.35;;;;;;;;;;10323446;28;20040;-75
2022/03/05 18:55:05;;;;;;;70.63;38.28;;;;;;;;;;10323312;28;20019;-73
2022/03/05 19:00:06;;;;;;;50.25;25.25;;;;;;;;;;10339028;28;20057;-78
2022/03/05 19:05:06;;;;;;;66.70;32.90;;;;;;;;;;10335262;28;20512;-74
2022/03/05 19:10:07;;;;;;;53.38;30.35;;;;;;;;;;10322915;28;20030;-74
2022/03/05 19:15:07;;;;;;;65.30;30.77;;;;;;;;;;10324159;28;20031;-70
2022/03/05 19:20:09;;;;;;;70.82;34.35;;;;;;;;;;10338092;28;20022;-74
2022/03/05 19:25:10;;;;;;;69.20;32.45;;;;;;;;;;10322655;28;20030;-73
2022/03/05 19:30:12;;;;;;;60.42;33.42;;;;;;;;;;10322528;28;20401;-69
2022/03/05 19:35:15;;;;;;;67.47;32.38;;;;;;;;;;10321643;28;20032;-73
2022/03/05 19:40:16;;;;;;;70.60;36.58;;;;;;;;;;10321543;28;20459;-75
2022/03/05 19:45:16;;;;;;;72.47;36.97;;;;;;;;;;10321129;28;20022;-74
2022/03/05 19:50:19;;;;;;;68.22;35.20;;;;;;;;;;10321320;28;20048;-76
2022/03/05 19:55:19;;;;;;;68.03;35.28;;;;;;;;;;10321413;28;20022;-76
2022/03/05 20:00:20;;;;;;;63.80;33.60;;;;;;;;;;10321435;28;20027;-74
2022/03/05 20:05:21;;;;;;;65.95;32.33;;;;;;;;;;10320280;28;20450;-74
2022/03/05 20:10:21;;;;;;;71.57;33.47;;;;;;;;;;10319386;28;20026;-76
2022/03/05 20:15:22;;;;;;;65.85;32.33;;;;;;;;;;10320157;28;20026;-74
2022/03/05 20:20:22;;;;;;;58.08;30.85;;;;;;;;;;10320363;28;20018;-74
2022/03/05 20:25:23;;;;;;;61.22;30.35;;;;;;;;;;10320722;28;20026;-72
2022/03/05 20:30:23;;;;;;;58.80;30.60;;;;;;;;;;10319324;28;20457;-71
2022/03/05 20:35:25;;;;;;;58.50;31.20;;;;;;;;;;10319225;28;20521;-74
2022/03/05 20:40:25;;;;;;;61.78;32.95;;;;;;;;;;10320321;28;20548;-74
2022/03/05 20:45:29;;;;;;;58.10;32.77;;;;;;;;;;10320374;28;20144;-73
2022/03/05 20:50:29;;;;;;;58.88;31.08;;;;;;;;;;10319546;28;20019;-69
2022/03/05 20:55:30;;;;;;;64.40;31.10;;;;;;;;;;10321311;28;20018;-72
2022/03/05 21:00:30;;;;;;;62.70;31.47;;;;;;;;;;10319299;28;20042;-71
2022/03/05 21:05:31;;;;;;;67.35;30.15;;;;;;;;;;10319188;28;20508;-75
2022/03/05 21:10:31;;;;;;;70.00;34.53;;;;;;;;;;10319882;28;20459;-72
2022/03/05 21:15:32;;;;;;;70.03;32.67;;;;;;;;;;10302490;28;20033;-78
2022/03/05 21:20:32;;;;;;;60.23;29.93;;;;;;;;;;10319514;28;20121;-75
2022/03/05 21:25:32;;;;;;;63.35;31.70;;;;;;;;;;10333895;28;20022;-71
2022/03/05 21:30:32;;;;;;;59.00;31.00;;;;;;;;;;10331711;28;20584;-74
2022/03/05 21:35:33;;;;;;;65.23;30.53;;;;;;;;;;10317305;28;20053;-74
2022/03/05 21:40:33;;;;;;;55.97;30.48;;;;;;;;;;10319134;28;20022;-71
2022/03/05 21:45:34;;;;;;;56.47;29.97;;;;;;;;;;10332802;28;20101;-74
2022/03/05 21:50:34;;;;;;;56.30;28.95;;;;;;;;;;10318512;28;20349;-69
2022/03/05 21:55:35;;;;;;;53.77;29.43;;;;;;;;;;10332599;28;20792;-74
2022/03/05 22:00:35;;;;;;;55.65;29.40;;;;;;;;;;10319012;28;20030;-72
2022/03/05 22:05:35;;;;;;;52.80;27.00;;;;;;;;;;10320747;28;20113;-71
2022/03/05 22:10:36;;;;;;;51.20;28.30;;;;;;;;;;10325482;28;20037;-72
2022/03/05 22:15:36;;;;;;;52.73;29.27;;;;;;;;;;10324725;28;20026;-71
2022/03/05 22:20:37;;;;;;;56.75;27.88;;;;;;;;;;10324489;28;20034;-77
2022/03/05 22:25:38;;;;;;;55.40;27.25;;;;;;;;;;10325706;28;20473;-72
2022/03/05 22:30:38;;;;;;;58.00;31.97;;;;;;;;;;10341509;28;20019;-75
2022/03/05 22:35:38;;;;;;;54.35;25.77;;;;;;;;;;10324946;28;20068;-70
2022/03/05 22:40:38;;;;;;;54.53;25.47;;;;;;;;;;10324084;28;20026;-76
2022/03/05 22:45:39;;;;;;;52.72;28.13;;;;;;;;;;10340037;28;20121;-69
2022/03/05 22:50:39;;;;;;;43.80;23.37;;;;;;;;;;10338084;28;20022;-79
2022/03/05 22:55:40;;;;;;;41.67;23.42;;;;;;;;;;10323214;28;20033;-73
2022/03/05 23:00:44;;;;;;;46.83;25.88;;;;;;;;;;10331630;28;20050;-72
2022/03/05 23:05:44;;;;;;;40.78;21.83;;;;;;;;;;10326273;28;20110;-74
2022/03/05 23:10:44;;;;;;;41.65;23.17;;;;;;;;;;10325866;28;20485;-74
2022/03/05 23:15:45;;;;;;;39.23;23.40;;;;;;;;;;10326557;28;20397;-77
2022/03/05 23:20:45;;;;;;;37.88;21.33;;;;;;;;;;10292289;28;20031;-74
2022/03/05 23:25:45;;;;;;;28.13;16.57;;;;;;;;;;10285278;28;20053;-76
2022/03/05 23:30:46;;;;;;;42.90;22.42;;;;;;;;;;10301569;28;20045;-74
2022/03/05 23:35:46;;;;;;;35.50;20.50;;;;;;;;;;10283922;28;20545;-74
2022/03/05 23:40:47;;;;;;;29.30;17.57;;;;;;;;;;10307617;28;20121;-72
2022/03/05 23:45:47;;;;;;;30.20;18.27;;;;;;;;;;10326164;28;20367;-71
2022/03/05 23:50:47;;;;;;;25.80;16.50;;;;;;;;;;10324658;28;20022;-76
2022/03/05 23:55:48;;;;;;;30.75;17.55;;;;;;;;;;10324752;28;20345;-73
